Time;durP1;ratioP1;P1;durP2;ratioP2;P2;SDS_P1;SDS_P2;PMS_P1;PMS_P2;Temp;Humidity;BMP_temperature;BMP_pressure;BME280_temperature;BME280_humidity;BME280_pressure;Samples;Min_cycle;Max_cycle;Signal;HPM_P1;HPM_P2
2022/01/01 00:02:02;;;;;;;;;;;11.50;99.90;;;;;;5038470;28;19931;-86
2022/01/01 00:04:27;;;;;;;;;;;11.50;99.90;;;;;;5036676;28;20029;-86
2022/01/01 00:06:52;;;;;;;;;;;11.50;99.90;;;;;;5053199;28;19935;-86
2022/01/01 00:09:18;;;;;;;;;;;11.50;99.90;;;;;;5037742;28;19924;-87
2022/01/01 00:11:43;;;;;;;;;;;11.50;99.90;;;;;;5040016;28;20542;-86
2022/01/01 00:14:09;;;;;;;;;;;11.50;99.90;;;;;;5056277;28;19913;-87
2022/01/01 00:16:35;;;;;;;;;;;11.50;99.90;;;;;;5037658;28;20315;-87
2022/01/01 00:19:00;;;;;;;;;;;11.50;99.90;;;;;;5036543;28;20311;-86
2022/01/01 00:21:26;;;;;;;;;;;11.50;99.90;;;;;;5039923;28;19913;-87
2022/01/01 00:23:51;;;;;;;;;;;11.50;99.90;;;;;;5044800;28;19953;-85
2022/01/01 00:26:17;;;;;;;;;;;11.50;99.90;;;;;;5034845;28;19916;-86
2022/01/01 00:28:42;;;;;;;;;;;11.50;99.90;;;;;;5053553;28;19965;-86
2022/01/01 00:31:08;;;;;;;;;;;11.50;99.90;;;;;;5041000;28;20371;-86
2022/01/01 00:33:33;;;;;;;;;;;11.50;99.90;;;;;;5054787;28;20329;-86
2022/01/01 00:35:59;;;;;;;;;;;11.50;99.90;;;;;;5038968;28;19909;-87
2022/01/01 00:38:24;;;;;;;;;;;11.50;99.90;;;;;;5038246;28;19913;-86
2022/01/01 00:40:50;;;;;;;;;;;11.50;99.90;;;;;;5037672;28;20361;-84
2022/01/01 00:43:15;;;;;;;;;;;11.50;99.90;;;;;;5044648;28;19920;-85
2022/01/01 00:45:41;;;;;;;;;;;11.50;99.90;;;;;;5034719;28;19909;-85
2022/01/01 00:48:06;;;;;;;;;;;11.50;99.90;;;;;;5044198;28;19957;-86
2022/01/01 00:50:32;;;;;;;;;;;11.50;99.90;;;;;;5051808;28;19912;-86
2022/01/01 00:53:01;;;;;;;;;;;11.50;99.90;;;;;;5037496;28;19916;-86
2022/01/01 00:55:26;;;;;;;;;;;11.50;99.90;;;;;;5038450;28;19917;-86
2022/01/01 00:57:52;;;;;;;;;;;11.50;99.90;;;;;;5038231;28;20310;-86
2022/01/01 01:00:17;;;;;;;;;;;11.50;99.90;;;;;;5035847;28;20450;-86
2022/01/01 01:02:43;;;;;;;;;;;11.50;99.90;;;;;;5036044;28;19908;-87
2022/01/01 01:05:08;;;;;;;;;;;11.50;99.90;;;;;;5037609;28;19913;-86
2022/01/01 01:07:34;;;;;;;;;;;11.50;99.90;;;;;;5037440;28;19912;-86
2022/01/01 01:10:03;;;;;;;;;;;11.50;99.90;;;;;;5035744;28;20582;-86
2022/01/01 01:12:38;;;;;;;;;;;11.50;99.90;;;;;;5031982;28;20595;-87
2022/01/01 01:15:04;;;;;;;;;;;11.50;99.90;;;;;;5041643;28;19967;-86
2022/01/01 01:17:30;;;;;;;;;;;11.50;99.90;;;;;;5034494;28;20740;-86
2022/01/01 01:19:55;;;;;;;;;;;11.50;99.90;;;;;;5035457;28;19913;-87
2022/01/01 01:22:21;;;;;;;;;;;11.50;99.90;;;;;;5034671;28;19909;-87
2022/01/01 01:24:46;;;;;;;;;;;11.50;99.90;;;;;;5035784;28;19909;-86
2022/01/01 01:27:11;;;;;;;;;;;11.50;99.90;;;;;;5033520;28;20328;-86
2022/01/01 01:29:41;;;;;;;;;;;11.50;99.90;;;;;;5034534;28;19963;-86
2022/01/01 01:32:07;;;;;;;;;;;11.50;99.90;;;;;;5034544;28;19919;-86
2022/01/01 01:34:33;;;;;;;;;;;11.50;99.90;;;;;;5036001;28;19909;-86
2022/01/01 01:36:58;;;;;;;;;;;11.50;99.90;;;;;;5033875;28;19955;-87
2022/01/01 01:39:24;;;;;;;;;;;11.50;99.90;;;;;;5048061;28;19909;-87
2022/01/01 01:41:52;;;;;;;;;;;11.50;99.90;;;;;;5033260;28;19916;-87
2022/01/01 01:44:29;;;;;;;;;;;11.50;99.90;;;;;;5033442;28;19913;-86
2022/01/01 01:46:56;;;;;;;;;;;11.50;99.90;;;;;;5035109;28;20418;-85
2022/01/01 01:49:21;;;;;;;;;;;11.50;99.90;;;;;;5033110;28;19921;-86
2022/01/01 01:51:47;;;;;;;;;;;11.60;99.90;;;;;;5033215;28;19988;-86
2022/01/01 01:54:16;;;;;;;;;;;11.60;99.90;;;;;;5035698;28;19948;-86
2022/01/01 01:56:43;;;;;;;;;;;11.60;99.90;;;;;;5033621;28;19921;-86
2022/01/01 01:59:10;;;;;;;;;;;11.60;99.90;;;;;;5048025;28;19913;-86
2022/01/01 02:01:35;;;;;;;;;;;11.60;99.90;;;;;;5033315;28;20308;-87
2022/01/01 02:04:01;;;;;;;;;;;11.70;99.90;;;;;;5035290;28;19963;-86
2022/01/01 02:06:27;;;;;;;;;;;11.60;99.90;;;;;;5033624;28;20115;-86
2022/01/01 02:08:53;;;;;;;;;;;11.70;99.90;;;;;;5033604;28;19924;-86
2022/01/01 02:11:20;;;;;;;;;;;11.60;99.90;;;;;;5033844;28;20031;-87
2022/01/01 02:16:39;;;;;;;;;;;11.70;99.90;;;;;;5010934;28;19944;-87
2022/01/01 02:19:04;;;;;;;;;;;11.60;99.90;;;;;;5031805;28;19920;-87
2022/01/01 02:21:30;;;;;;;;;;;11.60;99.90;;;;;;5028796;28;19913;-86
2022/01/01 02:23:59;;;;;;;;;;;11.70;99.90;;;;;;5033207;28;19913;-86
2022/01/01 02:26:29;;;;;;;;;;;11.60;99.90;;;;;;5030936;28;19913;-87
2022/01/01 02:28:55;;;;;;;;;;;11.70;99.90;;;;;;5031895;28;20432;-86
2022/01/01 02:31:21;;;;;;;;;;;11.70;99.90;;;;;;5033341;28;19912;-86
2022/01/01 02:33:46;;;;;;;;;;;11.60;99.90;;;;;;5029229;28;19912;-87
2022/01/01 02:36:11;;;;;;;;;;;11.60;99.90;;;;;;5031288;28;19921;-86
2022/01/01 02:38:37;;;;;;;;;;;11.70;99.90;;;;;;5033515;28;19912;-87
2022/01/01 02:41:03;;;;;;;;;;;11.60;99.90;;;;;;5029468;28;19913;-87
2022/01/01 02:43:31;;;;;;;;;;;11.60;99.90;;;;;;5034041;28;19920;-86
2022/01/01 02:45:56;;;;;;;;;;;11.70;99.90;;;;;;5034110;28;20289;-87
2022/01/01 02:48:23;;;;;;;;;;;11.60;99.90;;;;;;5030880;28;19924;-87
2022/01/01 02:50:51;;;;;;;;;;;11.60;99.90;;;;;;5030984;28;20419;-86
2022/01/01 02:53:19;;;;;;;;;;;11.60;99.90;;;;;;5031979;28;20094;-87
2022/01/01 02:55:45;;;;;;;;;;;11.60;99.90;;;;;;5030567;28;20708;-87
2022/01/01 02:58:11;;;;;;;;;;;11.50;99.90;;;;;;5033196;28;19952;-86
2022/01/01 03:00:37;;;;;;;;;;;11.50;99.90;;;;;;5032708;28;20583;-87
2022/01/01 03:03:03;;;;;;;;;;;11.50;99.90;;;;;;5031408;28;19920;-86
2022/01/01 03:05:30;;;;;;;;;;;11.50;99.90;;;;;;5033330;28;20022;-87
2022/01/01 03:07:55;;;;;;;;;;;11.50;99.90;;;;;;5031203;28;19916;-86
2022/01/01 03:10:21;;;;;;;;;;;11.50;99.90;;;;;;5032706;28;19920;-86
2022/01/01 03:12:46;;;;;;;;;;;11.50;99.90;;;;;;5046240;28;19913;-87
2022/01/01 03:15:12;;;;;;;;;;;11.50;99.90;;;;;;5028670;28;20330;-87
2022/01/01 03:17:37;;;;;;;;;;;11.50;99.90;;;;;;5033499;28;20032;-87
2022/01/01 03:20:03;;;;;;;;;;;11.50;99.90;;;;;;5030781;28;20039;-87
2022/01/01 03:22:29;;;;;;;;;;;11.50;99.90;;;;;;5044957;28;20377;-87
2022/01/01 03:24:54;;;;;;;;;;;11.50;99.90;;;;;;5031160;28;19959;-87
2022/01/01 03:27:20;;;;;;;;;;;11.50;99.90;;;;;;5032308;28;20338;-87
2022/01/01 03:29:45;;;;;;;;;;;11.50;99.90;;;;;;5031729;28;20403;-87
2022/01/01 03:32:11;;;;;;;;;;;11.50;99.90;;;;;;5031936;28;19912;-87
2022/01/01 03:34:36;;;;;;;;;;;11.50;99.90;;;;;;5033156;28;19909;-86
2022/01/01 03:37:02;;;;;;;;;;;11.50;99.90;;;;;;5029436;28;19920;-86
2022/01/01 03:39:28;;;;;;;;;;;11.50;99.90;;;;;;5030107;28;19917;-87
2022/01/01 03:41:53;;;;;;;;;;;11.50;99.90;;;;;;5030414;28;19913;-87
2022/01/01 03:44:19;;;;;;;;;;;11.50;99.90;;;;;;5033139;28;19909;-86
2022/01/01 03:46:45;;;;;;;;;;;11.50;99.90;;;;;;5030305;28;19909;-87
2022/01/01 03:49:10;;;;;;;;;;;11.50;99.90;;;;;;5029793;28;19913;-86
2022/01/01 03:51:36;;;;;;;;;;;11.50;99.90;;;;;;5027646;28;20392;-86
2022/01/01 03:54:01;;;;;;;;;;;11.50;99.90;;;;;;5031775;28;19995;-87
2022/01/01 03:56:27;;;;;;;;;;;11.50;99.90;;;;;;5035865;28;19924;-86
2022/01/01 03:58:52;;;;;;;;;;;11.50;99.90;;;;;;5032857;28;19920;-87
2022/01/01 04:01:18;;;;;;;;;;;11.50;99.90;;;;;;5036094;28;19943;-87
2022/01/01 04:03:43;;;;;;;;;;;11.50;99.90;;;;;;5034093;28;19909;-88
2022/01/01 04:06:09;;;;;;;;;;;11.50;99.90;;;;;;5036730;28;20289;-86
2022/01/01 04:08:35;;;;;;;;;;;11.50;99.90;;;;;;5038608;28;20266;-86
2022/01/01 04:11:00;;;;;;;;;;;11.40;99.90;;;;;;5036215;28;19999;-87
2022/01/01 04:13:26;;;;;;;;;;;11.40;99.90;;;;;;5039165;28;20562;-88
2022/01/01 04:15:52;;;;;;;;;;;11.40;99.90;;;;;;5052399;28;20288;-87
2022/01/01 04:18:26;;;;;;;;;;;11.50;99.90;;;;;;5038754;28;19912;-87
2022/01/01 04:20:52;;;;;;;;;;;11.40;99.90;;;;;;5038776;28;19951;-87
2022/01/01 04:23:17;;;;;;;;;;;11.40;99.90;;;;;;5037572;28;19999;-87
2022/01/01 04:25:44;;;;;;;;;;;11.50;99.90;;;;;;5035425;28;19973;-87
2022/01/01 04:28:09;;;;;;;;;;;11.50;99.90;;;;;;5036583;28;20475;-88
2022/01/01 04:30:35;;;;;;;;;;;11.50;99.90;;;;;;5040615;28;19920;-89
2022/01/01 04:33:01;;;;;;;;;;;11.50;99.90;;;;;;5038829;28;20408;-87
2022/01/01 04:35:27;;;;;;;;;;;11.50;99.90;;;;;;5052725;28;19920;-87
2022/01/01 04:37:52;;;;;;;;;;;11.50;99.90;;;;;;5035429;28;19952;-88
2022/01/01 04:40:18;;;;;;;;;;;11.50;99.90;;;;;;5035914;28;20594;-87
2022/01/01 04:42:43;;;;;;;;;;;11.40;99.90;;;;;;5036946;28;19912;-87
2022/01/01 04:45:09;;;;;;;;;;;11.50;99.90;;;;;;5039275;28;19920;-87
2022/01/01 04:47:35;;;;;;;;;;;11.50;99.90;;;;;;5039637;28;19912;-87
2022/01/01 04:50:02;;;;;;;;;;;11.50;99.90;;;;;;5049049;28;20011;-87
2022/01/01 04:52:28;;;;;;;;;;;11.50;99.90;;;;;;5035227;28;20441;-88
2022/01/01 04:54:54;;;;;;;;;;;11.50;99.90;;;;;;5044282;28;19913;-88
2022/01/01 04:57:19;;;;;;;;;;;11.50;99.90;;;;;;5050371;28;20328;-86
2022/01/01 04:59:45;;;;;;;;;;;11.50;99.90;;;;;;5037889;28;20402;-87
2022/01/01 05:02:10;;;;;;;;;;;11.50;99.90;;;;;;5037500;28;19908;-87
2022/01/01 05:04:37;;;;;;;;;;;11.50;99.90;;;;;;5034900;28;19927;-86
2022/01/01 05:07:04;;;;;;;;;;;11.50;99.90;;;;;;5037872;28;19908;-87
2022/01/01 05:09:30;;;;;;;;;;;11.50;99.90;;;;;;5038124;28;20603;-86
2022/01/01 05:11:55;;;;;;;;;;;11.50;99.90;;;;;;5043404;28;19913;-87
2022/01/01 05:14:21;;;;;;;;;;;11.50;99.90;;;;;;5035383;28;20249;-86
2022/01/01 05:16:46;;;;;;;;;;;11.50;99.90;;;;;;5040832;28;19956;-87
2022/01/01 05:19:12;;;;;;;;;;;11.50;99.90;;;;;;5035052;28;19931;-87
2022/01/01 05:21:38;;;;;;;;;;;11.50;99.90;;;;;;5037589;28;19912;-87
2022/01/01 05:24:04;;;;;;;;;;;11.50;99.90;;;;;;5035951;28;20411;-87
2022/01/01 05:26:30;;;;;;;;;;;11.50;99.90;;;;;;5037894;28;20261;-86
2022/01/01 05:28:56;;;;;;;;;;;11.50;99.90;;;;;;5036754;28;19916;-87
2022/01/01 05:31:21;;;;;;;;;;;11.50;99.90;;;;;;5051742;28;19920;-86
2022/01/01 05:33:47;;;;;;;;;;;11.50;99.90;;;;;;5035716;28;19912;-87
2022/01/01 05:36:13;;;;;;;;;;;11.50;99.90;;;;;;5037325;28;20291;-87
2022/01/01 05:38:39;;;;;;;;;;;11.50;99.90;;;;;;5036680;28;19913;-86
2022/01/01 05:41:05;;;;;;;;;;;11.50;99.90;;;;;;5033881;28;19932;-86
2022/01/01 05:43:30;;;;;;;;;;;11.50;99.90;;;;;;5036832;28;20308;-86
2022/01/01 05:45:56;;;;;;;;;;;11.50;99.90;;;;;;5035524;28;20319;-88
2022/01/01 05:48:21;;;;;;;;;;;11.50;99.90;;;;;;5038504;28;21017;-87
2022/01/01 05:50:47;;;;;;;;;;;11.50;99.90;;;;;;5051327;28;19913;-88
2022/01/01 05:53:13;;;;;;;;;;;11.50;99.90;;;;;;5052362;28;19947;-87
2022/01/01 05:55:38;;;;;;;;;;;11.50;99.90;;;;;;5037248;28;19912;-87
2022/01/01 05:58:05;;;;;;;;;;;11.50;99.90;;;;;;5038030;28;19963;-87
2022/01/01 06:00:34;;;;;;;;;;;11.50;99.90;;;;;;5037921;28;19912;-87
2022/01/01 06:03:00;;;;;;;;;;;11.50;99.90;;;;;;5036480;28;19950;-87
2022/01/01 06:05:26;;;;;;;;;;;11.50;99.90;;;;;;5048754;28;19912;-86
2022/01/01 06:07:53;;;;;;;;;;;11.50;99.90;;;;;;5037532;28;19913;-87
2022/01/01 06:10:18;;;;;;;;;;;11.50;99.90;;;;;;5049807;28;19921;-86
2022/01/01 06:12:44;;;;;;;;;;;11.50;99.90;;;;;;5036115;28;19919;-86
2022/01/01 06:15:09;;;;;;;;;;;11.50;99.90;;;;;;5036644;28;19938;-87
2022/01/01 06:17:35;;;;;;;;;;;11.50;99.90;;;;;;5039298;28;20193;-87
2022/01/01 06:20:00;;;;;;;;;;;11.60;99.90;;;;;;5051008;28;19920;-87
2022/01/01 06:22:26;;;;;;;;;;;11.60;99.90;;;;;;5034722;28;19919;-87
2022/01/01 06:24:51;;;;;;;;;;;11.50;99.90;;;;;;5034138;28;19917;-86
2022/01/01 06:27:20;;;;;;;;;;;11.50;99.90;;;;;;5053856;28;19954;-87
2022/01/01 06:29:45;;;;;;;;;;;11.50;99.90;;;;;;5049600;28;19912;-86
2022/01/01 06:32:11;;;;;;;;;;;11.50;99.90;;;;;;5037842;28;20331;-86
2022/01/01 06:34:37;;;;;;;;;;;11.50;99.90;;;;;;5034650;28;19912;-87
2022/01/01 06:37:03;;;;;;;;;;;11.50;99.90;;;;;;5049263;28;20367;-86
2022/01/01 06:39:28;;;;;;;;;;;11.50;99.90;;;;;;5051485;28;19912;-87
2022/01/01 06:41:54;;;;;;;;;;;11.50;99.90;;;;;;5037837;28;20374;-87
2022/01/01 06:44:19;;;;;;;;;;;11.50;99.90;;;;;;5051637;28;19965;-87
2022/01/01 06:46:44;;;;;;;;;;;11.50;99.90;;;;;;5037105;28;19908;-87
2022/01/01 06:49:10;;;;;;;;;;;11.60;99.90;;;;;;5036929;28;20074;-86
2022/01/01 06:51:36;;;;;;;;;;;11.60;99.90;;;;;;5053616;28;19923;-87
2022/01/01 06:54:05;;;;;;;;;;;11.60;99.90;;;;;;5051909;28;19919;-87
2022/01/01 06:56:31;;;;;;;;;;;11.60;99.90;;;;;;5035340;28;19913;-87
2022/01/01 06:58:56;;;;;;;;;;;11.60;99.90;;;;;;5054857;28;19934;-87
2022/01/01 07:01:22;;;;;;;;;;;11.60;99.90;;;;;;5036803;28;20769;-87
2022/01/01 07:03:47;;;;;;;;;;;11.60;99.90;;;;;;5044141;28;19970;-87
2022/01/01 07:06:13;;;;;;;;;;;11.60;99.90;;;;;;5035730;28;19948;-86
2022/01/01 07:08:38;;;;;;;;;;;11.60;99.90;;;;;;5052101;28;19962;-86
2022/01/01 07:11:04;;;;;;;;;;;11.60;99.90;;;;;;5036905;28;20265;-87
2022/01/01 07:13:32;;;;;;;;;;;11.70;99.90;;;;;;5037088;28;19948;-87
2022/01/01 07:15:57;;;;;;;;;;;11.60;99.90;;;;;;5048821;28;20023;-87
2022/01/01 07:18:23;;;;;;;;;;;11.60;99.90;;;;;;5036648;28;20406;-87
2022/01/01 07:20:48;;;;;;;;;;;11.60;99.90;;;;;;5034249;28;19912;-87
2022/01/01 07:23:14;;;;;;;;;;;11.60;99.90;;;;;;5050946;28;19916;-87
2022/01/01 07:25:39;;;;;;;;;;;11.60;99.90;;;;;;5035934;28;19943;-86
2022/01/01 07:28:05;;;;;;;;;;;11.60;99.90;;;;;;5039157;28;19920;-86
2022/01/01 07:30:30;;;;;;;;;;;11.60;99.90;;;;;;5056363;28;20328;-87
2022/01/01 07:32:56;;;;;;;;;;;11.60;99.90;;;;;;5039581;28;20335;-88
2022/01/01 07:35:22;;;;;;;;;;;11.60;99.90;;;;;;5040033;28;20007;-86
2022/01/01 07:37:47;;;;;;;;;;;11.60;99.90;;;;;;5038166;28;19916;-86
2022/01/01 07:40:13;;;;;;;;;;;11.60;99.90;;;;;;5053166;28;19920;-87
2022/01/01 07:42:40;;;;;;;;;;;11.60;99.90;;;;;;5043718;28;19962;-86
2022/01/01 07:45:06;;;;;;;;;;;11.60;99.90;;;;;;5047493;28;19912;-85
2022/01/01 07:47:32;;;;;;;;;;;11.60;99.90;;;;;;5041120;28;20917;-87
2022/01/01 07:49:57;;;;;;;;;;;11.60;99.90;;;;;;5040286;28;19920;-86
2022/01/01 07:52:23;;;;;;;;;;;11.60;99.90;;;;;;5040376;28;20011;-87
2022/01/01 07:54:48;;;;;;;;;;;11.60;99.90;;;;;;5037979;28;20054;-87
2022/01/01 07:57:14;;;;;;;;;;;11.60;99.90;;;;;;5039254;28;20635;-86
2022/01/01 07:59:39;;;;;;;;;;;11.60;99.90;;;;;;5042193;28;19909;-84
2022/01/01 08:02:04;;;;;;;;;;;11.70;99.90;;;;;;5038514;28;19962;-87
2022/01/01 08:04:30;;;;;;;;;;;11.60;99.90;;;;;;5038695;28;20571;-86
2022/01/01 08:06:55;;;;;;;;;;;11.60;99.90;;;;;;5053184;28;19920;-86
2022/01/01 08:09:21;;;;;;;;;;;11.70;99.90;;;;;;5036344;28;19944;-86
2022/01/01 08:11:46;;;;;;;;;;;11.70;99.90;;;;;;5034329;28;20466;-87
2022/01/01 08:14:12;;;;;;;;;;;11.70;99.90;;;;;;5032457;28;20274;-86
2022/01/01 08:17:04;;;;;;;;;;;11.60;99.90;;;;;;5039740;28;19919;-87
2022/01/01 08:19:32;;;;;;;;;;;11.60;99.90;;;;;;4993817;28;19969;-88
2022/01/01 08:21:59;;;;;;;;;;;11.70;99.90;;;;;;5024241;28;20389;-89
2022/01/01 08:24:24;;;;;;;;;;;11.70;99.90;;;;;;5032854;28;20343;-87
2022/01/01 08:26:53;;;;;;;;;;;11.70;99.90;;;;;;5034319;28;19921;-88
2022/01/01 08:29:18;;;;;;;;;;;11.70;99.90;;;;;;5034369;28;19913;-89
2022/01/01 08:31:44;;;;;;;;;;;11.80;99.90;;;;;;5037022;28;19913;-90
2022/01/01 08:34:10;;;;;;;;;;;11.80;99.90;;;;;;5041354;28;20318;-88
2022/01/01 08:36:50;;;;;;;;;;;11.80;99.90;;;;;;5032658;28;20013;-89
2022/01/01 08:39:18;;;;;;;;;;;11.80;99.90;;;;;;5029262;28;19974;-88
2022/01/01 08:41:44;;;;;;;;;;;11.80;99.90;;;;;;5033339;28;19947;-89
2022/01/01 08:44:10;;;;;;;;;;;11.80;99.90;;;;;;5033888;28;19913;-87
2022/01/01 08:46:38;;;;;;;;;;;11.80;99.90;;;;;;5037439;28;20434;-87
2022/01/01 08:49:05;;;;;;;;;;;11.90;99.90;;;;;;5032764;28;19913;-86
2022/01/01 08:51:32;;;;;;;;;;;11.90;99.90;;;;;;5033847;28;19924;-87
2022/01/01 08:53:57;;;;;;;;;;;11.90;99.90;;;;;;5024694;28;19915;-87
2022/01/01 08:56:24;;;;;;;;;;;11.90;99.90;;;;;;4994509;28;19917;-88
2022/01/01 08:58:50;;;;;;;;;;;11.90;99.90;;;;;;4998421;28;19920;-88
2022/01/01 09:01:19;;;;;;;;;;;11.90;99.90;;;;;;5023750;28;19917;-87
2022/01/01 09:03:47;;;;;;;;;;;11.90;99.90;;;;;;5025892;28;20376;-87
2022/01/01 09:06:12;;;;;;;;;;;11.90;99.90;;;;;;5022818;28;19913;-87
2022/01/01 09:08:39;;;;;;;;;;;11.90;99.90;;;;;;5036103;28;19912;-89
2022/01/01 09:11:05;;;;;;;;;;;11.90;99.90;;;;;;5037979;28;19913;-88
2022/01/01 09:13:31;;;;;;;;;;;11.90;99.90;;;;;;5040829;28;20065;-88
2022/01/01 09:15:59;;;;;;;;;;;11.90;99.90;;;;;;5032408;28;19956;-87
2022/01/01 09:18:25;;;;;;;;;;;11.90;99.90;;;;;;5024764;28;20311;-86
2022/01/01 09:21:00;;;;;;;;;;;11.90;99.90;;;;;;5042866;28;19962;-90
2022/01/01 09:23:26;;;;;;;;;;;11.90;99.90;;;;;;5042904;28;19940;-88
2022/01/01 09:25:52;;;;;;;;;;;11.90;99.90;;;;;;5037025;28;20005;-88
2022/01/01 09:28:17;;;;;;;;;;;11.90;99.90;;;;;;5039120;28;19955;-90
2022/01/01 09:30:43;;;;;;;;;;;11.90;99.90;;;;;;5033698;28;20011;-89
2022/01/01 09:33:10;;;;;;;;;;;11.90;99.90;;;;;;5037680;28;20378;-89
2022/01/01 09:35:35;;;;;;;;;;;11.90;99.90;;;;;;5044138;28;19913;-89
2022/01/01 09:38:01;;;;;;;;;;;11.90;99.90;;;;;;5048516;28;19916;-88
2022/01/01 09:40:26;;;;;;;;;;;11.90;99.90;;;;;;5043306;28;19997;-87
2022/01/01 09:42:52;;;;;;;;;;;11.90;99.90;;;;;;5052371;28;20951;-88
2022/01/01 09:45:18;;;;;;;;;;;11.90;99.90;;;;;;5036620;28;20299;-89
2022/01/01 09:47:43;;;;;;;;;;;11.90;99.90;;;;;;5024973;28;19909;-90
2022/01/01 09:50:09;;;;;;;;;;;11.90;99.90;;;;;;5035789;28;19948;-86
2022/01/01 09:52:35;;;;;;;;;;;12.00;99.90;;;;;;5049799;28;20486;-89
2022/01/01 09:55:00;;;;;;;;;;;12.00;99.90;;;;;;5036591;28;19917;-89
2022/01/01 09:57:26;;;;;;;;;;;12.00;99.90;;;;;;5040130;28;19980;-88
2022/01/01 09:59:51;;;;;;;;;;;12.00;99.90;;;;;;5026559;28;19916;-88
2022/01/01 10:02:19;;;;;;;;;;;12.00;99.90;;;;;;5039364;28;20003;-87
2022/01/01 10:04:48;;;;;;;;;;;12.00;99.90;;;;;;5048012;28;19919;-89
2022/01/01 10:07:14;;;;;;;;;;;12.00;99.90;;;;;;5035242;28;20541;-88
2022/01/01 10:09:43;;;;;;;;;;;12.00;99.90;;;;;;5010032;28;19925;-88
2022/01/01 10:12:12;;;;;;;;;;;12.10;99.90;;;;;;5023031;28;19919;-88
2022/01/01 10:14:42;;;;;;;;;;;12.10;99.90;;;;;;5013638;28;19909;-89
2022/01/01 10:17:32;;;;;;;;;;;12.10;99.90;;;;;;5014723;28;19916;-88
2022/01/01 10:19:57;;;;;;;;;;;12.10;99.90;;;;;;5033726;28;20935;-89
2022/01/01 10:22:24;;;;;;;;;;;12.10;99.90;;;;;;5024670;28;19908;-88
2022/01/01 10:28:03;;;;;;;;;;;12.20;99.90;;;;;;5013021;28;20050;-88
2022/01/01 10:30:54;;;;;;;;;;;12.30;99.90;;;;;;5010998;28;20297;-88
2022/01/01 10:33:25;;;;;;;;;;;12.30;99.90;;;;;;5028615;28;19974;-88
2022/01/01 10:36:04;;;;;;;;;;;;;;;;;;;;;
2022/01/01 10:38:30;;;;;;;;;;;12.20;99.90;;;;;;5030886;28;19920;-86
2022/01/01 10:41:04;;;;;;;;;;;12.20;99.90;;;;;;5030823;28;19920;-86
2022/01/01 10:43:41;;;;;;;;;;;12.30;99.90;;;;;;5029356;28;19929;-86
2022/01/01 10:46:13;;;;;;;;;;;12.30;99.90;;;;;;5035087;28;19913;-87
2022/01/01 10:51:08;;;;;;;;;;;12.40;99.90;;;;;;5029890;28;19916;-86
2022/01/01 10:53:34;;;;;;;;;;;12.50;99.90;;;;;;5032073;28;19913;-86
2022/01/01 10:56:01;;;;;;;;;;;12.40;99.90;;;;;;5026013;28;20402;-87
2022/01/01 10:58:45;;;;;;;;;;;12.40;99.90;;;;;;5028589;28;19917;-88
2022/01/01 11:01:18;;;;;;;;;;;12.40;99.90;;;;;;5022303;28;20121;-88
2022/01/01 11:03:46;;;;;;;;;;;12.40;99.90;;;;;;5031356;28;19913;-90
2022/01/01 11:06:15;;;;;;;;;;;12.50;99.90;;;;;;5023421;28;20268;-89
2022/01/01 11:08:44;;;;;;;;;;;12.60;99.90;;;;;;5004162;28;19913;-89
2022/01/01 11:11:10;;;;;;;;;;;12.50;99.90;;;;;;5026185;28;19940;-89
2022/01/01 11:13:36;;;;;;;;;;;12.50;99.90;;;;;;5022108;28;19912;-87
2022/01/01 11:16:03;;;;;;;;;;;12.50;99.90;;;;;;5032254;28;19944;-88
2022/01/01 11:18:28;;;;;;;;;;;12.50;99.90;;;;;;5028330;28;19955;-88
2022/01/01 11:20:56;;;;;;;;;;;12.60;99.90;;;;;;5025024;28;20012;-87
2022/01/01 11:23:24;;;;;;;;;;;12.50;99.90;;;;;;5025560;28;20357;-88
2022/01/01 11:25:52;;;;;;;;;;;12.50;99.90;;;;;;5025202;28;19912;-88
2022/01/01 11:28:18;;;;;;;;;;;12.50;99.90;;;;;;5039654;28;19915;-87
2022/01/01 11:30:46;;;;;;;;;;;12.40;99.90;;;;;;5033441;28;19971;-88
2022/01/01 11:33:13;;;;;;;;;;;12.40;99.90;;;;;;5047242;28;19920;-87
2022/01/01 11:35:41;;;;;;;;;;;12.50;99.90;;;;;;5030375;28;19940;-88
2022/01/01 11:38:10;;;;;;;;;;;12.50;99.90;;;;;;5030051;28;19970;-88
2022/01/01 11:40:39;;;;;;;;;;;12.50;99.90;;;;;;5031707;28;20376;-88
2022/01/01 11:43:04;;;;;;;;;;;12.50;99.90;;;;;;5032462;28;19917;-89
2022/01/01 11:45:45;;;;;;;;;;;12.50;99.90;;;;;;5034947;28;20380;-89
2022/01/01 11:48:26;;;;;;;;;;;12.60;99.90;;;;;;5047606;28;19943;-88
2022/01/01 11:50:52;;;;;;;;;;;12.60;99.90;;;;;;5046640;28;19913;-88
2022/01/01 11:53:27;;;;;;;;;;;12.70;99.90;;;;;;5032130;28;20293;-88
2022/01/01 11:56:06;;;;;;;;;;;12.80;99.90;;;;;;5035425;28;20364;-88
2022/01/01 11:59:03;;;;;;;;;;;13.00;99.90;;;;;;5032467;28;19917;-88
2022/01/01 12:01:40;;;;;;;;;;;12.90;99.90;;;;;;4990147;28;19937;-88
2022/01/01 12:04:21;;;;;;;;;;;12.90;99.90;;;;;;5031796;28;20011;-88
2022/01/01 12:06:51;;;;;;;;;;;12.80;99.90;;;;;;5031786;28;19948;-88
2022/01/01 12:09:16;;;;;;;;;;;12.80;99.90;;;;;;5037654;28;19928;-87
2022/01/01 12:11:49;;;;;;;;;;;12.80;99.90;;;;;;5041565;28;19913;-88
2022/01/01 12:14:34;;;;;;;;;;;12.80;99.90;;;;;;5043194;28;20617;-88
2022/01/01 12:17:02;;;;;;;;;;;12.80;99.90;;;;;;5043574;28;19927;-88
2022/01/01 12:19:27;;;;;;;;;;;12.80;99.90;;;;;;5026654;28;20410;-88
2022/01/01 12:22:07;;;;;;;;;;;12.80;99.90;;;;;;5027457;28;19916;-87
2022/01/01 12:24:37;;;;;;;;;;;12.90;99.90;;;;;;5044772;28;19920;-88
2022/01/01 12:27:13;;;;;;;;;;;12.90;99.90;;;;;;5017831;28;19908;-87
2022/01/01 12:29:38;;;;;;;;;;;12.90;99.90;;;;;;5045450;28;20184;-88
2022/01/01 12:32:07;;;;;;;;;;;13.00;99.90;;;;;;5026083;28;19919;-88
2022/01/01 12:34:34;;;;;;;;;;;12.90;99.90;;;;;;5025896;28;19913;-87
2022/01/01 12:37:03;;;;;;;;;;;12.90;99.90;;;;;;5044526;28;19936;-87
2022/01/01 12:39:28;;;;;;;;;;;12.90;99.90;;;;;;5025479;28;20541;-87
2022/01/01 12:41:56;;;;;;;;;;;12.90;99.90;;;;;;5042630;28;19909;-87
2022/01/01 12:44:23;;;;;;;;;;;12.90;99.90;;;;;;5045687;28;19917;-87
2022/01/01 12:46:51;;;;;;;;;;;12.80;99.90;;;;;;5026427;28;19924;-88
2022/01/01 12:49:17;;;;;;;;;;;12.70;99.90;;;;;;5042863;28;20283;-87
2022/01/01 12:51:42;;;;;;;;;;;12.70;99.90;;;;;;5032434;28;19916;-89
2022/01/01 12:54:09;;;;;;;;;;;12.60;99.90;;;;;;5043659;28;19919;-87
2022/01/01 12:56:36;;;;;;;;;;;12.60;99.90;;;;;;5043801;28;19916;-88
2022/01/01 12:59:10;;;;;;;;;;;12.60;99.90;;;;;;5045999;28;19940;-87
2022/01/01 13:01:40;;;;;;;;;;;12.60;99.90;;;;;;5044221;28;19916;-87
2022/01/01 13:04:06;;;;;;;;;;;12.60;99.90;;;;;;5015699;28;19955;-88
2022/01/01 13:06:36;;;;;;;;;;;12.60;99.90;;;;;;5017213;28;20023;-88
2022/01/01 13:09:08;;;;;;;;;;;12.60;99.90;;;;;;5004556;28;20332;-88
2022/01/01 13:11:47;;;;;;;;;;;12.60;99.90;;;;;;5000681;28;20368;-89
2022/01/01 13:14:15;;;;;;;;;;;12.60;99.90;;;;;;5033291;28;19909;-88
2022/01/01 13:16:41;;;;;;;;;;;12.60;99.90;;;;;;5036905;28;20035;-88
2022/01/01 13:19:06;;;;;;;;;;;12.50;99.90;;;;;;5036798;28;20333;-87
2022/01/01 13:21:32;;;;;;;;;;;12.60;99.90;;;;;;5034868;28;19915;-88
2022/01/01 13:23:58;;;;;;;;;;;12.60;99.90;;;;;;5035206;28;19912;-87
2022/01/01 13:26:23;;;;;;;;;;;12.60;99.90;;;;;;5035745;28;20352;-88
2022/01/01 13:28:49;;;;;;;;;;;12.60;99.90;;;;;;5033365;28;20584;-88
2022/01/01 13:31:15;;;;;;;;;;;12.60;99.90;;;;;;5036497;28;19909;-87
2022/01/01 13:33:51;;;;;;;;;;;12.60;99.90;;;;;;5030799;28;19939;-85
2022/01/01 13:36:36;;;;;;;;;;;12.50;99.90;;;;;;5034042;28;19912;-88
2022/01/01 13:39:05;;;;;;;;;;;12.50;99.90;;;;;;5036643;28;19964;-88
2022/01/01 13:41:35;;;;;;;;;;;12.60;99.90;;;;;;5035588;28;19916;-88
2022/01/01 13:44:18;;;;;;;;;;;12.60;99.90;;;;;;5035512;28;19917;-88
2022/01/01 13:46:44;;;;;;;;;;;12.50;99.90;;;;;;5050161;28;19909;-87
2022/01/01 13:49:15;;;;;;;;;;;12.50;99.90;;;;;;5033522;28;19920;-88
2022/01/01 13:51:41;;;;;;;;;;;12.50;99.90;;;;;;5034676;28;20384;-86
2022/01/01 13:54:08;;;;;;;;;;;12.50;99.90;;;;;;5035691;28;19912;-88
2022/01/01 13:56:34;;;;;;;;;;;12.50;99.90;;;;;;5026662;28;20777;-87
2022/01/01 13:59:01;;;;;;;;;;;12.50;99.90;;;;;;5030132;28;21804;-88
2022/01/01 14:01:27;;;;;;;;;;;12.50;99.90;;;;;;5032710;28;19916;-87
2022/01/01 14:03:54;;;;;;;;;;;12.50;99.90;;;;;;5033657;28;20040;-87
2022/01/01 14:06:23;;;;;;;;;;;12.50;99.90;;;;;;5039129;28;19913;-88
2022/01/01 14:09:04;;;;;;;;;;;12.40;99.90;;;;;;5022089;28;19915;-87
2022/01/01 14:11:34;;;;;;;;;;;12.50;99.90;;;;;;5021353;28;19947;-86
2022/01/01 14:14:07;;;;;;;;;;;12.50;99.90;;;;;;5034431;28;19916;-87
2022/01/01 14:16:41;;;;;;;;;;;12.50;99.90;;;;;;5019426;28;19908;-86
2022/01/01 14:19:19;;;;;;;;;;;12.50;99.90;;;;;;5030070;28;19916;-87
2022/01/01 14:21:46;;;;;;;;;;;12.50;99.90;;;;;;5029792;28;20007;-89
2022/01/01 14:24:13;;;;;;;;;;;12.50;99.90;;;;;;5028463;28;19913;-86
2022/01/01 14:26:40;;;;;;;;;;;12.50;99.90;;;;;;5032510;28;20056;-88
2022/01/01 14:29:05;;;;;;;;;;;12.50;99.90;;;;;;5030080;28;19920;-87